sensor_id;sensor_type;location;lat;lon;timestamp;pressure;altitude;pressure_sealevel;temperature;humidity
61761;BME280;47664;51.660;-0.100;2023-02-13T00:01:51;102911.19;;;5.69;59.74
61761;BME280;47664;51.660;-0.100;2023-02-13T00:04:24;102909.22;;;6.20;61.26
61761;BME280;47664;51.660;-0.100;2023-02-13T00:06:56;102908.16;;;5.31;61.30
61761;BME280;47664;51.660;-0.100;2023-02-13T00:09:28;102904.78;;;5.89;61.29
61761;BME280;47664;51.660;-0.100;2023-02-13T00:12:00;102905.30;;;6.19;59.86
61761;BME280;47664;51.660;-0.100;2023-02-13T00:14:33;102902.86;;;6.26;60.29
61761;BME280;47664;51.660;-0.100;2023-02-13T00:17:05;102900.36;;;6.43;59.89
61761;BME280;47664;51.660;-0.100;2023-02-13T00:19:38;102898.16;;;6.53;59.36
61761;BME280;47664;51.660;-0.100;2023-02-13T00:22:10;102897.00;;;6.73;58.67
61761;BME280;47664;51.660;-0.100;2023-02-13T00:24:42;102900.79;;;6.51;59.58
61761;BME280;47664;51.660;-0.100;2023-02-13T00:27:15;102898.01;;;6.65;58.72
61761;BME280;47664;51.660;-0.100;2023-02-13T00:29:47;102894.06;;;6.67;58.15
61761;BME280;47664;51.660;-0.100;2023-02-13T00:32:20;102894.56;;;7.17;57.72
61761;BME280;47664;51.660;-0.100;2023-02-13T00:34:53;102895.91;;;6.21;57.81
61761;BME280;47664;51.660;-0.100;2023-02-13T00:37:25;102895.09;;;6.67;58.11
61761;BME280;47664;51.660;-0.100;2023-02-13T00:39:57;102892.63;;;6.60;58.18
61761;BME280;47664;51.660;-0.100;2023-02-13T00:42:29;102893.51;;;6.63;58.17
61761;BME280;47664;51.660;-0.100;2023-02-13T00:45:02;102890.50;;;6.17;58.87
61761;BME280;47664;51.660;-0.100;2023-02-13T00:47:34;102889.36;;;6.19;59.61
61761;BME280;47664;51.660;-0.100;2023-02-13T00:50:07;102891.34;;;6.14;59.98
61761;BME280;47664;51.660;-0.100;2023-02-13T00:52:40;102888.24;;;6.25;60.36
61761;BME280;47664;51.660;-0.100;2023-02-13T00:55:12;102890.97;;;6.05;59.94
61761;BME280;47664;51.660;-0.100;2023-02-13T00:57:44;102894.67;;;6.16;59.61
61761;BME280;47664;51.660;-0.100;2023-02-13T01:00:18;102889.75;;;6.22;60.00
61761;BME280;47664;51.660;-0.100;2023-02-13T01:02:50;102887.69;;;6.17;59.66
61761;BME280;47664;51.660;-0.100;2023-02-13T01:05:22;102886.00;;;6.48;59.46
61761;BME280;47664;51.660;-0.100;2023-02-13T01:07:56;102887.19;;;6.66;58.72
61761;BME280;47664;51.660;-0.100;2023-02-13T01:10:28;102891.34;;;6.16;59.31
61761;BME280;47664;51.660;-0.100;2023-02-13T01:13:00;102893.29;;;6.05;60.12
61761;BME280;47664;51.660;-0.100;2023-02-13T01:15:33;102892.27;;;6.17;59.73
61761;BME280;47664;51.660;-0.100;2023-02-13T01:18:05;102892.70;;;5.82;60.00
61761;BME280;47664;51.660;-0.100;2023-02-13T01:20:38;102892.62;;;6.38;60.01
61761;BME280;47664;51.660;-0.100;2023-02-13T01:23:10;102892.19;;;6.06;59.00
61761;BME280;47664;51.660;-0.100;2023-02-13T01:25:44;102891.11;;;6.17;59.37
61761;BME280;47664;51.660;-0.100;2023-02-13T01:28:16;102890.39;;;6.12;59.72
61761;BME280;47664;51.660;-0.100;2023-02-13T01:30:52;102892.40;;;5.54;59.12
61761;BME280;47664;51.660;-0.100;2023-02-13T01:33:24;102891.45;;;6.11;58.87
61761;BME280;47664;51.660;-0.100;2023-02-13T01:35:57;102893.49;;;5.44;58.96
61761;BME280;47664;51.660;-0.100;2023-02-13T01:38:30;102893.26;;;6.17;58.36
61761;BME280;47664;51.660;-0.100;2023-02-13T01:41:01;102888.93;;;5.72;59.34
61761;BME280;47664;51.660;-0.100;2023-02-13T01:43:44;102888.24;;;5.81;59.36
61761;BME280;47664;51.660;-0.100;2023-02-13T01:46:22;102893.19;;;5.80;59.93
61761;BME280;47664;51.660;-0.100;2023-02-13T01:48:59;102888.04;;;5.58;59.32
61761;BME280;47664;51.660;-0.100;2023-02-13T01:51:31;102887.06;;;6.28;57.98
61761;BME280;47664;51.660;-0.100;2023-02-13T01:54:06;102886.02;;;5.98;57.90
61761;BME280;47664;51.660;-0.100;2023-02-13T01:56:42;102883.51;;;5.91;58.40
61761;BME280;47664;51.660;-0.100;2023-02-13T01:59:17;102879.49;;;5.49;59.13
61761;BME280;47664;51.660;-0.100;2023-02-13T02:01:51;102878.15;;;5.06;59.40
61761;BME280;47664;51.660;-0.100;2023-02-13T02:04:28;102878.61;;;5.74;58.59
61761;BME280;47664;51.660;-0.100;2023-02-13T02:07:02;102875.96;;;5.32;59.01
61761;BME280;47664;51.660;-0.100;2023-02-13T02:09:38;102876.22;;;5.60;58.49
61761;BME280;47664;51.660;-0.100;2023-02-13T02:12:17;102877.72;;;5.51;59.02
61761;BME280;47664;51.660;-0.100;2023-02-13T02:14:54;102877.67;;;4.59;59.37
61761;BME280;47664;51.660;-0.100;2023-02-13T02:17:27;102880.78;;;4.85;59.80
61761;BME280;47664;51.660;-0.100;2023-02-13T02:20:04;102882.63;;;4.47;60.66
61761;BME280;47664;51.660;-0.100;2023-02-13T02:22:54;102880.20;;;5.06;59.65
61761;BME280;47664;51.660;-0.100;2023-02-13T02:25:45;102878.08;;;4.95;59.54
61761;BME280;47664;51.660;-0.100;2023-02-13T02:28:29;102875.23;;;5.03;59.16
61761;BME280;47664;51.660;-0.100;2023-02-13T02:31:17;102866.69;;;5.27;58.18
61761;BME280;47664;51.660;-0.100;2023-02-13T02:34:00;102868.44;;;5.21;57.16
61761;BME280;47664;51.660;-0.100;2023-02-13T02:36:43;102864.45;;;5.93;57.23
61761;BME280;47664;51.660;-0.100;2023-02-13T02:39:26;102862.57;;;5.61;57.11
61761;BME280;47664;51.660;-0.100;2023-02-13T02:42:05;102862.01;;;5.64;57.19
61761;BME280;47664;51.660;-0.100;2023-02-13T02:44:42;102863.17;;;6.46;56.34
61761;BME280;47664;51.660;-0.100;2023-02-13T02:47:20;102865.78;;;6.46;55.65
61761;BME280;47664;51.660;-0.100;2023-02-13T02:50:02;102864.61;;;6.00;55.22
61761;BME280;47664;51.660;-0.100;2023-02-13T02:52:41;102865.62;;;6.08;55.35
61761;BME280;47664;51.660;-0.100;2023-02-13T02:55:21;102863.79;;;5.97;55.30
61761;BME280;47664;51.660;-0.100;2023-02-13T02:58:01;102860.08;;;6.10;55.13
61761;BME280;47664;51.660;-0.100;2023-02-13T03:00:41;102860.83;;;6.15;55.52
61761;BME280;47664;51.660;-0.100;2023-02-13T03:03:14;102858.10;;;6.04;56.14
61761;BME280;47664;51.660;-0.100;2023-02-13T03:05:49;102857.64;;;5.85;55.75
61761;BME280;47664;51.660;-0.100;2023-02-13T03:08:23;102857.51;;;6.03;56.21
61761;BME280;47664;51.660;-0.100;2023-02-13T03:10:56;102855.68;;;5.98;56.60
61761;BME280;47664;51.660;-0.100;2023-02-13T03:13:36;102854.70;;;6.37;55.80
61761;BME280;47664;51.660;-0.100;2023-02-13T03:16:10;102860.08;;;6.49;55.11
61761;BME280;47664;51.660;-0.100;2023-02-13T03:18:41;102859.84;;;6.51;54.77
61761;BME280;47664;51.660;-0.100;2023-02-13T03:21:15;102859.32;;;6.14;55.10
61761;BME280;47664;51.660;-0.100;2023-02-13T03:23:51;102859.45;;;5.80;56.00
61761;BME280;47664;51.660;-0.100;2023-02-13T03:26:35;102855.34;;;6.41;55.70
61761;BME280;47664;51.660;-0.100;2023-02-13T03:29:12;102855.29;;;6.48;55.30
61761;BME280;47664;51.660;-0.100;2023-02-13T03:31:50;102853.94;;;5.72;55.73
61761;BME280;47664;51.660;-0.100;2023-02-13T03:34:26;102854.98;;;6.39;55.35
61761;BME280;47664;51.660;-0.100;2023-02-13T03:37:05;102849.86;;;6.12;55.56
61761;BME280;47664;51.660;-0.100;2023-02-13T03:39:49;102845.11;;;6.33;55.76
61761;BME280;47664;51.660;-0.100;2023-02-13T03:42:28;102843.44;;;6.12;55.39
61761;BME280;47664;51.660;-0.100;2023-02-13T03:45:01;102842.34;;;6.23;56.08
61761;BME280;47664;51.660;-0.100;2023-02-13T03:47:34;102844.78;;;6.35;55.56
61761;BME280;47664;51.660;-0.100;2023-02-13T03:50:08;102843.86;;;6.13;55.37
61761;BME280;47664;51.660;-0.100;2023-02-13T03:52:42;102840.15;;;6.60;55.18
61761;BME280;47664;51.660;-0.100;2023-02-13T03:55:19;102836.15;;;6.63;54.50
61761;BME280;47664;51.660;-0.100;2023-02-13T03:57:52;102839.91;;;6.23;54.33
61761;BME280;47664;51.660;-0.100;2023-02-13T04:00:27;102838.45;;;6.83;53.90
61761;BME280;47664;51.660;-0.100;2023-02-13T04:03:00;102835.28;;;6.76;53.73
61761;BME280;47664;51.660;-0.100;2023-02-13T04:05:38;102834.68;;;6.76;53.95
61761;BME280;47664;51.660;-0.100;2023-02-13T04:08:11;102834.14;;;6.75;54.03
61761;BME280;47664;51.660;-0.100;2023-02-13T04:10:48;102830.46;;;6.90;53.74
61761;BME280;47664;51.660;-0.100;2023-02-13T04:13:26;102830.96;;;6.84;53.86
61761;BME280;47664;51.660;-0.100;2023-02-13T04:16:01;102832.89;;;6.96;53.21
61761;BME280;47664;51.660;-0.100;2023-02-13T04:18:36;102830.77;;;6.77;53.94
61761;BME280;47664;51.660;-0.100;2023-02-13T04:21:10;102827.54;;;6.81;53.96
61761;BME280;47664;51.660;-0.100;2023-02-13T04:23:42;102831.02;;;7.15;53.46
61761;BME280;47664;51.660;-0.100;2023-02-13T04:26:16;102832.02;;;7.22;53.30
61761;BME280;47664;51.660;-0.100;2023-02-13T04:28:49;102831.40;;;6.85;53.16
61761;BME280;47664;51.660;-0.100;2023-02-13T04:31:21;102832.36;;;7.38;52.42
61761;BME280;47664;51.660;-0.100;2023-02-13T04:33:53;102829.40;;;6.51;53.44
61761;BME280;47664;51.660;-0.100;2023-02-13T04:36:25;102827.11;;;6.61;54.05
61761;BME280;47664;51.660;-0.100;2023-02-13T04:38:58;102824.58;;;6.75;54.09
61761;BME280;47664;51.660;-0.100;2023-02-13T04:41:30;102824.80;;;6.82;53.92
61761;BME280;47664;51.660;-0.100;2023-02-13T04:44:02;102825.95;;;6.99;53.56
61761;BME280;47664;51.660;-0.100;2023-02-13T04:46:35;102826.60;;;6.85;54.00
61761;BME280;47664;51.660;-0.100;2023-02-13T04:49:08;102826.42;;;6.95;53.69
61761;BME280;47664;51.660;-0.100;2023-02-13T04:51:41;102829.28;;;6.85;54.43
61761;BME280;47664;51.660;-0.100;2023-02-13T04:54:14;102827.85;;;6.79;54.18
61761;BME280;47664;51.660;-0.100;2023-02-13T04:56:47;102827.71;;;6.68;53.78
61761;BME280;47664;51.660;-0.100;2023-02-13T04:59:19;102827.84;;;6.63;54.01
61761;BME280;47664;51.660;-0.100;2023-02-13T05:01:51;102824.32;;;6.01;54.51
61761;BME280;47664;51.660;-0.100;2023-02-13T05:04:23;102823.88;;;6.36;54.32
61761;BME280;47664;51.660;-0.100;2023-02-13T05:06:56;102820.27;;;6.11;54.08
61761;BME280;47664;51.660;-0.100;2023-02-13T05:09:28;102823.50;;;6.38;54.76
61761;BME280;47664;51.660;-0.100;2023-02-13T05:12:01;102822.96;;;6.40;54.34
61761;BME280;47664;51.660;-0.100;2023-02-13T05:14:33;102825.42;;;6.73;54.42
61761;BME280;47664;51.660;-0.100;2023-02-13T05:17:05;102822.08;;;6.56;54.19
61761;BME280;47664;51.660;-0.100;2023-02-13T05:19:37;102817.96;;;6.62;53.99
61761;BME280;47664;51.660;-0.100;2023-02-13T05:22:10;102818.28;;;6.48;54.17
61761;BME280;47664;51.660;-0.100;2023-02-13T05:24:42;102820.35;;;6.42;54.79
61761;BME280;47664;51.660;-0.100;2023-02-13T05:27:15;102817.88;;;6.54;54.53
61761;BME280;47664;51.660;-0.100;2023-02-13T05:29:48;102815.34;;;5.49;55.95
61761;BME280;47664;51.660;-0.100;2023-02-13T05:32:25;102812.03;;;6.49;55.27
61761;BME280;47664;51.660;-0.100;2023-02-13T05:34:57;102809.25;;;6.20;54.69
61761;BME280;47664;51.660;-0.100;2023-02-13T05:37:29;102806.89;;;6.08;55.70
61761;BME280;47664;51.660;-0.100;2023-02-13T05:40:02;102814.61;;;6.13;54.95
61761;BME280;47664;51.660;-0.100;2023-02-13T05:42:34;102809.69;;;6.39;54.38
61761;BME280;47664;51.660;-0.100;2023-02-13T05:45:07;102804.77;;;6.54;54.09
61761;BME280;47664;51.660;-0.100;2023-02-13T05:47:40;102803.93;;;6.08;54.28
61761;BME280;47664;51.660;-0.100;2023-02-13T05:50:12;102805.61;;;6.44;54.43
61761;BME280;47664;51.660;-0.100;2023-02-13T05:52:45;102806.16;;;6.94;53.56
61761;BME280;47664;51.660;-0.100;2023-02-13T05:55:18;102808.38;;;6.76;53.35
61761;BME280;47664;51.660;-0.100;2023-02-13T05:57:54;102809.79;;;6.54;52.92
61761;BME280;47664;51.660;-0.100;2023-02-13T06:00:27;102808.96;;;7.34;52.62
61761;BME280;47664;51.660;-0.100;2023-02-13T06:02:59;102804.50;;;6.31;53.17
61761;BME280;47664;51.660;-0.100;2023-02-13T06:05:31;102806.92;;;6.54;53.36
61761;BME280;47664;51.660;-0.100;2023-02-13T06:08:04;102805.30;;;6.54;52.99
61761;BME280;47664;51.660;-0.100;2023-02-13T06:10:36;102803.73;;;6.45;53.04
61761;BME280;47664;51.660;-0.100;2023-02-13T06:13:09;102801.14;;;6.29;53.74
61761;BME280;47664;51.660;-0.100;2023-02-13T06:15:42;102802.54;;;6.37;53.67
61761;BME280;47664;51.660;-0.100;2023-02-13T06:18:15;102803.36;;;6.38;53.58
61761;BME280;47664;51.660;-0.100;2023-02-13T06:20:47;102805.83;;;6.34;53.63
61761;BME280;47664;51.660;-0.100;2023-02-13T06:23:19;102806.76;;;6.77;53.09
61761;BME280;47664;51.660;-0.100;2023-02-13T06:25:52;102807.57;;;6.40;52.80
61761;BME280;47664;51.660;-0.100;2023-02-13T06:28:23;102807.00;;;6.76;52.83
61761;BME280;47664;51.660;-0.100;2023-02-13T06:30:56;102806.91;;;6.67;52.58
61761;BME280;47664;51.660;-0.100;2023-02-13T06:33:28;102805.90;;;6.67;52.72
61761;BME280;47664;51.660;-0.100;2023-02-13T06:36:05;102804.50;;;6.67;53.05
61761;BME280;47664;51.660;-0.100;2023-02-13T06:38:37;102806.28;;;6.67;52.83
61761;BME280;47664;51.660;-0.100;2023-02-13T06:41:10;102806.80;;;6.47;53.21
61761;BME280;47664;51.660;-0.100;2023-02-13T06:43:42;102809.45;;;6.33;53.75
61761;BME280;47664;51.660;-0.100;2023-02-13T06:46:14;102808.82;;;6.19;53.77
61761;BME280;47664;51.660;-0.100;2023-02-13T06:48:46;102812.06;;;6.30;53.44
61761;BME280;47664;51.660;-0.100;2023-02-13T06:51:18;102813.27;;;6.38;53.33
61761;BME280;47664;51.660;-0.100;2023-02-13T06:53:50;102817.59;;;5.93;53.63
61761;BME280;47664;51.660;-0.100;2023-02-13T06:56:22;102819.67;;;6.26;53.49
61761;BME280;47664;51.660;-0.100;2023-02-13T06:58:54;102820.91;;;5.88;53.42
61761;BME280;47664;51.660;-0.100;2023-02-13T07:01:27;102821.40;;;6.33;53.33
61761;BME280;47664;51.660;-0.100;2023-02-13T07:03:59;102820.28;;;5.91;53.11
61761;BME280;47664;51.660;-0.100;2023-02-13T07:06:31;102823.07;;;6.20;53.34
61761;BME280;47664;51.660;-0.100;2023-02-13T07:09:05;102821.26;;;6.20;53.46
61761;BME280;47664;51.660;-0.100;2023-02-13T07:11:37;102822.62;;;6.59;52.60
61761;BME280;47664;51.660;-0.100;2023-02-13T07:14:10;102824.84;;;6.56;52.58
61761;BME280;47664;51.660;-0.100;2023-02-13T07:16:43;102825.51;;;6.80;52.30
61761;BME280;47664;51.660;-0.100;2023-02-13T07:19:15;102826.22;;;6.94;52.12
61761;BME280;47664;51.660;-0.100;2023-02-13T07:21:47;102826.68;;;6.75;52.17
61761;BME280;47664;51.660;-0.100;2023-02-13T07:24:19;102828.56;;;6.68;52.23
61761;BME280;47664;51.660;-0.100;2023-02-13T07:26:52;102826.42;;;6.82;52.77
61761;BME280;47664;51.660;-0.100;2023-02-13T07:29:24;102828.59;;;6.18;53.29
61761;BME280;47664;51.660;-0.100;2023-02-13T07:31:56;102828.04;;;6.26;53.27
61761;BME280;47664;51.660;-0.100;2023-02-13T07:34:29;102829.63;;;6.36;53.46
61761;BME280;47664;51.660;-0.100;2023-02-13T07:37:01;102826.91;;;5.77;53.95
61761;BME280;47664;51.660;-0.100;2023-02-13T07:39:33;102830.27;;;6.14;53.95
61761;BME280;47664;51.660;-0.100;2023-02-13T07:42:06;102828.86;;;5.74;54.18
61761;BME280;47664;51.660;-0.100;2023-02-13T07:44:38;102827.38;;;6.12;54.01
61761;BME280;47664;51.660;-0.100;2023-02-13T07:47:11;102825.30;;;5.77;54.11
61761;BME280;47664;51.660;-0.100;2023-02-13T07:49:43;102828.11;;;6.01;54.27
61761;BME280;47664;51.660;-0.100;2023-02-13T07:52:16;102826.34;;;5.65;54.97
61761;BME280;47664;51.660;-0.100;2023-02-13T07:54:48;102827.70;;;5.47;54.85
61761;BME280;47664;51.660;-0.100;2023-02-13T07:57:20;102827.75;;;5.99;54.96
61761;BME280;47664;51.660;-0.100;2023-02-13T07:59:53;102828.65;;;5.40;54.58
61761;BME280;47664;51.660;-0.100;2023-02-13T08:02:26;102830.42;;;6.17;54.27
61761;BME280;47664;51.660;-0.100;2023-02-13T08:04:58;102834.40;;;6.06;53.93
61761;BME280;47664;51.660;-0.100;2023-02-13T08:07:30;102831.62;;;6.16;53.79
61761;BME280;47664;51.660;-0.100;2023-02-13T08:10:02;102831.85;;;6.21;53.70
61761;BME280;47664;51.660;-0.100;2023-02-13T08:12:34;102831.09;;;6.49;53.83
61761;BME280;47664;51.660;-0.100;2023-02-13T08:15:08;102828.58;;;6.41;53.97
61761;BME280;47664;51.660;-0.100;2023-02-13T08:17:42;102828.24;;;6.07;54.19
61761;BME280;47664;51.660;-0.100;2023-02-13T08:20:15;102825.17;;;5.96;54.37
61761;BME280;47664;51.660;-0.100;2023-02-13T08:22:47;102821.23;;;5.83;54.46
61761;BME280;47664;51.660;-0.100;2023-02-13T08:25:19;102820.06;;;6.28;54.86
61761;BME280;47664;51.660;-0.100;2023-02-13T08:27:51;102818.31;;;6.02;55.05
61761;BME280;47664;51.660;-0.100;2023-02-13T08:30:25;102815.74;;;5.91;55.20
61761;BME280;47664;51.660;-0.100;2023-02-13T08:32:57;102813.65;;;5.99;54.81
61761;BME280;47664;51.660;-0.100;2023-02-13T08:35:29;102812.44;;;6.60;54.23
61761;BME280;47664;51.660;-0.100;2023-02-13T08:38:01;102805.31;;;6.00;55.26
61761;BME280;47664;51.660;-0.100;2023-02-13T08:40:34;102806.48;;;5.87;56.03
61761;BME280;47664;51.660;-0.100;2023-02-13T08:43:06;102806.04;;;5.35;56.97
61761;BME280;47664;51.660;-0.100;2023-02-13T08:45:40;102804.78;;;5.64;56.94
61761;BME280;47664;51.660;-0.100;2023-02-13T08:48:12;102808.05;;;5.33;57.52
61761;BME280;47664;51.660;-0.100;2023-02-13T08:50:44;102809.75;;;5.90;56.38
61761;BME280;47664;51.660;-0.100;2023-02-13T08:53:16;102808.35;;;5.73;56.62
61761;BME280;47664;51.660;-0.100;2023-02-13T08:55:51;102808.05;;;6.06;56.00
61761;BME280;47664;51.660;-0.100;2023-02-13T08:58:23;102806.70;;;6.10;55.47
61761;BME280;47664;51.660;-0.100;2023-02-13T09:00:54;102807.80;;;6.03;55.22
61761;BME280;47664;51.660;-0.100;2023-02-13T09:03:27;102804.05;;;6.32;55.28
61761;BME280;47664;51.660;-0.100;2023-02-13T09:06:03;102802.96;;;6.07;54.71
61761;BME280;47664;51.660;-0.100;2023-02-13T09:08:35;102800.25;;;6.53;54.74
61761;BME280;47664;51.660;-0.100;2023-02-13T09:11:08;102797.45;;;6.45;54.38
61761;BME280;47664;51.660;-0.100;2023-02-13T09:13:41;102797.84;;;6.71;53.82
61761;BME280;47664;51.660;-0.100;2023-02-13T09:16:14;102800.65;;;6.06;55.12
61761;BME280;47664;51.660;-0.100;2023-02-13T09:18:47;102794.95;;;6.65;54.75
61761;BME280;47664;51.660;-0.100;2023-02-13T09:21:20;102793.29;;;6.52;54.67
61761;BME280;47664;51.660;-0.100;2023-02-13T09:23:54;102790.24;;;6.53;55.16
61761;BME280;47664;51.660;-0.100;2023-02-13T09:26:26;102784.40;;;6.25;55.27
61761;BME280;47664;51.660;-0.100;2023-02-13T09:28:58;102786.92;;;5.75;55.42
61761;BME280;47664;51.660;-0.100;2023-02-13T09:31:31;102788.81;;;6.71;54.59
61761;BME280;47664;51.660;-0.100;2023-02-13T09:34:03;102785.82;;;6.31;54.26
61761;BME280;47664;51.660;-0.100;2023-02-13T09:36:34;102782.15;;;6.87;53.92
61761;BME280;47664;51.660;-0.100;2023-02-13T09:39:07;102781.79;;;6.53;54.49
61761;BME280;47664;51.660;-0.100;2023-02-13T09:41:41;102778.73;;;6.59;54.92
61761;BME280;47664;51.660;-0.100;2023-02-13T09:44:17;102773.35;;;6.70;54.37
61761;BME280;47664;51.660;-0.100;2023-02-13T09:46:51;102775.72;;;6.30;54.24
61761;BME280;47664;51.660;-0.100;2023-02-13T09:49:25;102775.74;;;6.12;55.66
61761;BME280;47664;51.660;-0.100;2023-02-13T09:52:01;102776.18;;;6.04;55.25
61761;BME280;47664;51.660;-0.100;2023-02-13T09:54:33;102777.35;;;6.59;54.71
61761;BME280;47664;51.660;-0.100;2023-02-13T09:57:10;102779.32;;;6.27;54.95
61761;BME280;47664;51.660;-0.100;2023-02-13T09:59:52;102783.17;;;6.87;53.88
61761;BME280;47664;51.660;-0.100;2023-02-13T10:02:34;102781.04;;;6.84;53.53
61761;BME280;47664;51.660;-0.100;2023-02-13T10:05:20;102781.83;;;6.83;53.38
61761;BME280;47664;51.660;-0.100;2023-02-13T10:07:56;102785.08;;;6.51;53.02
61761;BME280;47664;51.660;-0.100;2023-02-13T10:10:33;102780.80;;;7.33;53.06
61761;BME280;47664;51.660;-0.100;2023-02-13T10:13:17;102780.55;;;7.39;52.79
61761;BME280;47664;51.660;-0.100;2023-02-13T10:15:56;102778.50;;;7.35;51.90
61761;BME280;47664;51.660;-0.100;2023-02-13T10:18:32;102777.25;;;7.71;52.54
61761;BME280;47664;51.660;-0.100;2023-02-13T10:21:06;102778.58;;;7.76;52.85
61761;BME280;47664;51.660;-0.100;2023-02-13T10:23:38;102780.98;;;7.43;53.39
61761;BME280;47664;51.660;-0.100;2023-02-13T10:26:12;102787.82;;;7.67;53.38
61761;BME280;47664;51.660;-0.100;2023-02-13T10:28:50;102785.56;;;7.36;53.04
61761;BME280;47664;51.660;-0.100;2023-02-13T10:31:27;102782.41;;;7.91;52.57
61761;BME280;47664;51.660;-0.100;2023-02-13T10:33:59;102777.18;;;7.48;53.12
61761;BME280;47664;51.660;-0.100;2023-02-13T10:36:36;102775.11;;;7.90;52.93
61761;BME280;47664;51.660;-0.100;2023-02-13T10:39:20;102775.58;;;7.38;53.50
61761;BME280;47664;51.660;-0.100;2023-02-13T10:41:51;102776.56;;;7.97;52.22
61761;BME280;47664;51.660;-0.100;2023-02-13T10:44:32;102772.62;;;7.80;52.73
61761;BME280;47664;51.660;-0.100;2023-02-13T10:47:14;102771.40;;;8.07;52.25
61761;BME280;47664;51.660;-0.100;2023-02-13T10:49:54;102773.93;;;7.75;51.92
61761;BME280;47664;51.660;-0.100;2023-02-13T10:52:35;102773.76;;;8.12;51.86
61761;BME280;47664;51.660;-0.100;2023-02-13T10:55:17;102771.00;;;7.74;52.91
61761;BME280;47664;51.660;-0.100;2023-02-13T10:58:02;102773.92;;;7.26;52.75
61761;BME280;47664;51.660;-0.100;2023-02-13T11:00:42;102771.00;;;8.01;52.22
61761;BME280;47664;51.660;-0.100;2023-02-13T11:03:17;102769.05;;;8.18;52.46
61761;BME280;47664;51.660;-0.100;2023-02-13T11:05:51;102765.98;;;7.90;52.10
61761;BME280;47664;51.660;-0.100;2023-02-13T11:08:25;102768.42;;;8.43;51.79
61761;BME280;47664;51.660;-0.100;2023-02-13T11:10:59;102774.17;;;8.02;51.84
61761;BME280;47664;51.660;-0.100;2023-02-13T11:13:32;102771.83;;;8.72;51.25
61761;BME280;47664;51.660;-0.100;2023-02-13T11:16:07;102770.76;;;8.51;51.22
61761;BME280;47664;51.660;-0.100;2023-02-13T11:18:37;102767.87;;;8.47;51.86
61761;BME280;47664;51.660;-0.100;2023-02-13T11:21:13;102770.38;;;8.60;51.69
61761;BME280;47664;51.660;-0.100;2023-02-13T11:23:50;102771.46;;;8.39;50.75
61761;BME280;47664;51.660;-0.100;2023-02-13T11:26:22;102766.48;;;8.42;51.58
61761;BME280;47664;51.660;-0.100;2023-02-13T11:28:54;102765.27;;;8.51;51.72
61761;BME280;47664;51.660;-0.100;2023-02-13T11:31:29;102760.27;;;8.63;51.19
61761;BME280;47664;51.660;-0.100;2023-02-13T11:34:17;102758.64;;;8.15;51.28
61761;BME280;47664;51.660;-0.100;2023-02-13T11:37:06;102754.23;;;7.97;51.68
61761;BME280;47664;51.660;-0.100;2023-02-13T11:39:39;102746.66;;;8.78;51.36
61761;BME280;47664;51.660;-0.100;2023-02-13T11:42:12;102742.85;;;9.02;51.01
61761;BME280;47664;51.660;-0.100;2023-02-13T11:44:48;102742.39;;;9.26;50.39
61761;BME280;47664;51.660;-0.100;2023-02-13T11:47:29;102736.25;;;8.98;50.55
61761;BME280;47664;51.660;-0.100;2023-02-13T11:50:05;102735.05;;;8.47;50.96
61761;BME280;47664;51.660;-0.100;2023-02-13T11:52:40;102729.61;;;8.91;50.86
61761;BME280;47664;51.660;-0.100;2023-02-13T11:55:26;102727.97;;;9.35;50.61
61761;BME280;47664;51.660;-0.100;2023-02-13T11:57:57;102725.73;;;9.03;49.77
61761;BME280;47664;51.660;-0.100;2023-02-13T12:00:33;102721.51;;;8.87;49.95
61761;BME280;47664;51.660;-0.100;2023-02-13T12:03:23;102720.37;;;8.81;50.65
61761;BME280;47664;51.660;-0.100;2023-02-13T12:06:12;102714.70;;;8.31;51.33
61761;BME280;47664;51.660;-0.100;2023-02-13T12:08:45;102703.95;;;9.46;49.91
61761;BME280;47664;51.660;-0.100;2023-02-13T12:11:22;102705.26;;;9.26;49.88
61761;BME280;47664;51.660;-0.100;2023-02-13T12:13:57;102703.13;;;9.46;49.86
61761;BME280;47664;51.660;-0.100;2023-02-13T12:16:29;102703.20;;;9.56;49.84
61761;BME280;47664;51.660;-0.100;2023-02-13T12:19:05;102704.45;;;9.30;50.67
61761;BME280;47664;51.660;-0.100;2023-02-13T12:21:51;102701.54;;;9.44;50.59
61761;BME280;47664;51.660;-0.100;2023-02-13T12:24:33;102696.32;;;8.98;50.78
61761;BME280;47664;51.660;-0.100;2023-02-13T12:27:08;102695.60;;;9.12;50.62
61761;BME280;47664;51.660;-0.100;2023-02-13T12:29:56;102693.77;;;9.17;51.12
61761;BME280;47664;51.660;-0.100;2023-02-13T12:32:36;102691.01;;;9.24;50.87
61761;BME280;47664;51.660;-0.100;2023-02-13T12:35:26;102688.76;;;9.37;50.28
61761;BME280;47664;51.660;-0.100;2023-02-13T12:38:07;102686.15;;;9.59;50.19
61761;BME280;47664;51.660;-0.100;2023-02-13T12:40:50;102686.77;;;9.77;49.82
61761;BME280;47664;51.660;-0.100;2023-02-13T12:43:35;102689.18;;;9.50;49.66
61761;BME280;47664;51.660;-0.100;2023-02-13T12:46:12;102684.43;;;9.84;49.75
61761;BME280;47664;51.660;-0.100;2023-02-13T12:48:49;102683.29;;;9.61;48.86
61761;BME280;47664;51.660;-0.100;2023-02-13T12:51:29;102681.89;;;10.08;49.29
61761;BME280;47664;51.660;-0.100;2023-02-13T12:54:13;102678.36;;;9.89;49.34
61761;BME280;47664;51.660;-0.100;2023-02-13T12:56:54;102671.71;;;10.06;48.37
61761;BME280;47664;51.660;-0.100;2023-02-13T12:59:32;102668.49;;;10.33;48.68
61761;BME280;47664;51.660;-0.100;2023-02-13T13:02:26;102667.42;;;9.95;49.14
61761;BME280;47664;51.660;-0.100;2023-02-13T13:05:17;102662.43;;;10.01;49.80
61761;BME280;47664;51.660;-0.100;2023-02-13T13:08:03;102659.18;;;9.02;50.25
61761;BME280;47664;51.660;-0.100;2023-02-13T13:10:46;102654.45;;;9.90;50.51
61761;BME280;47664;51.660;-0.100;2023-02-13T13:13:29;102647.83;;;9.33;51.12
61761;BME280;47664;51.660;-0.100;2023-02-13T13:16:07;102646.61;;;9.31;50.60
61761;BME280;47664;51.660;-0.100;2023-02-13T13:18:48;102639.15;;;9.80;49.83
61761;BME280;47664;51.660;-0.100;2023-02-13T13:21:30;102628.82;;;10.20;50.22
61761;BME280;47664;51.660;-0.100;2023-02-13T13:24:08;102628.69;;;9.93;49.76
61761;BME280;47664;51.660;-0.100;2023-02-13T13:26:47;102627.56;;;10.25;49.58
61761;BME280;47664;51.660;-0.100;2023-02-13T13:29:22;102623.86;;;10.03;48.95
61761;BME280;47664;51.660;-0.100;2023-02-13T13:31:52;102624.48;;;9.67;49.58